Time;durP1;ratioP1;P1;durP2;ratioP2;P2;SDS_P1;SDS_P2;PMS_P1;PMS_P2;Temp;Humidity;BMP_temperature;BMP_pressure;BME280_temperature;BME280_humidity;BME280_pressure;Samples;Min_cycle;Max_cycle;Signal;HPM_P1;HPM_P2
2021/11/03 06:07:50;;;;;;;26.70;20.03;;;10.30;99.90;;;;;;2642499;53;20332;31
2021/11/03 06:10:24;;;;;;;30.60;20.13;;;5.80;99.90;;;;;;2602835;54;20896;31
2021/11/03 06:12:59;;;;;;;40.15;27.05;;;5.60;99.90;;;;;;2602760;54;20058;31
2021/11/03 06:15:32;;;;;;;36.83;22.97;;;5.50;99.90;;;;;;2602632;54;20037;31
2021/11/03 06:18:03;;;;;;;37.30;23.90;;;5.40;99.90;;;;;;2602798;54;20932;31
2021/11/03 06:20:37;;;;;;;37.88;23.08;;;5.30;99.90;;;;;;2602799;54;20027;31
2021/11/03 06:23:08;;;;;;;42.88;25.98;;;5.20;99.90;;;;;;2603224;46;20558;31
2021/11/03 06:25:41;;;;;;;32.30;22.00;;;5.10;99.90;;;;;;2602568;54;20361;31
2021/11/03 06:28:11;;;;;;;39.13;23.88;;;5.10;99.90;;;;;;2602630;54;20952;31
2021/11/03 06:30:52;;;;;;;39.65;25.20;;;5.20;99.90;;;;;;2603204;46;20050;31
2021/11/03 06:33:28;;;;;;;199.80;82.18;;;5.30;99.90;;;;;;2601749;54;20030;31
2021/11/03 06:36:01;;;;;;;245.65;100.10;;;5.30;99.90;;;;;;2602636;54;20026;31
2021/11/03 06:38:37;;;;;;;198.00;87.30;;;5.40;99.90;;;;;;2602578;46;20093;31
2021/11/03 06:41:14;;;;;;;109.00;55.47;;;5.40;99.90;;;;;;2603226;46;20038;31
2021/11/03 06:46:47;;;;;;;42.15;28.23;;;5.40;99.90;;;;;;2631431;46;20034;-88
2021/11/03 06:49:24;;;;;;;38.88;26.60;;;5.40;99.90;;;;;;2602416;54;20831;31
2021/11/03 06:52:06;;;;;;;42.42;25.13;;;5.70;99.90;;;;;;2602927;46;21109;31
2021/11/03 07:01:23;;;;;;;39.22;25.20;;;7.00;99.90;;;;;;2600248;54;19997;31
2021/11/03 07:04:07;;;;;;;39.10;23.70;;;7.70;99.90;;;;;;2602747;46;20030;31
2021/11/03 07:06:39;;;;;;;32.13;23.00;;;8.40;99.90;;;;;;2603042;46;20022;31
2021/11/03 07:09:12;;;;;;;32.03;21.93;;;9.10;99.90;;;;;;2602613;46;20045;31
2021/11/03 07:11:43;;;;;;;29.98;20.85;;;9.40;99.90;;;;;;2603002;46;21134;31
2021/11/03 07:14:17;;;;;;;28.20;21.07;;;9.70;99.90;;;;;;2603003;46;20046;31
2021/11/03 07:16:48;;;;;;;39.90;21.97;;;9.70;99.90;;;;;;2603049;46;20262;31
2021/11/03 07:19:19;;;;;;;30.88;20.20;;;9.60;99.90;;;;;;2602569;46;20975;31
2021/11/03 07:21:53;;;;;;;31.48;21.27;;;9.60;99.90;;;;;;2602933;46;20030;31
2021/11/03 07:24:24;;;;;;;34.75;22.23;;;9.40;99.90;;;;;;2602873;46;20038;31
2021/11/03 07:26:55;;;;;;;33.30;23.30;;;9.20;99.90;;;;;;2602919;46;20767;31
2021/11/03 07:29:26;;;;;;;32.22;21.92;;;9.10;99.90;;;;;;2610698;31;20398;31
2021/11/03 07:31:57;;;;;;;34.20;20.95;;;9.10;99.90;;;;;;2602984;46;20042;31
2021/11/03 07:34:28;;;;;;;26.63;21.02;;;9.20;99.90;;;;;;2602999;46;20086;31
2021/11/03 07:36:59;;;;;;;32.17;21.90;;;9.40;99.90;;;;;;2602350;54;20026;31
2021/11/03 07:39:31;;;;;;;28.43;21.93;;;9.80;99.90;;;;;;2602352;54;20033;31
2021/11/03 07:42:02;;;;;;;28.40;19.10;;;10.20;99.90;;;;;;2602427;54;20060;31
2021/11/03 07:44:39;;;;;;;25.27;18.77;;;10.50;99.90;;;;;;2602775;47;20867;31
2021/11/03 07:47:10;;;;;;;25.13;17.65;;;11.00;99.90;;;;;;2602706;46;20093;31
2021/11/03 07:49:46;;;;;;;24.73;17.50;;;11.50;99.90;;;;;;2602570;46;20901;31
2021/11/03 07:52:17;;;;;;;25.80;19.80;;;11.80;99.90;;;;;;2602774;46;20777;31
2021/11/03 07:54:48;;;;;;;29.55;22.08;;;12.20;99.90;;;;;;2602703;46;20852;31
2021/11/03 07:57:19;;;;;;;28.83;19.33;;;12.60;99.90;;;;;;2602777;46;20109;31
2021/11/03 07:59:50;;;;;;;23.80;19.05;;;12.90;99.90;;;;;;2602779;46;20038;31
2021/11/03 08:02:21;;;;;;;26.57;17.30;;;13.10;99.90;;;;;;2602867;46;20056;31
2021/11/03 08:04:53;;;;;;;22.05;16.63;;;13.60;99.90;;;;;;2602398;54;21124;31
2021/11/03 08:07:26;;;;;;;22.30;17.70;;;14.00;99.90;;;;;;2602382;54;20034;31
2021/11/03 08:09:57;;;;;;;25.95;19.45;;;14.20;99.90;;;;;;2618652;39;20430;31
2021/11/03 08:12:28;;;;;;;26.85;19.30;;;14.50;99.90;;;;;;2602427;54;20076;31
2021/11/03 08:14:59;;;;;;;21.60;17.48;;;14.90;99.90;;;;;;2603014;46;20077;31
2021/11/03 08:17:32;;;;;;;23.70;18.00;;;15.10;99.90;;;;;;2602519;54;20826;31
2021/11/03 08:20:07;;;;;;;24.70;19.15;;;15.30;99.90;;;;;;2602931;46;20952;31
2021/11/03 08:22:39;;;;;;;49.03;43.72;;;15.60;99.90;;;;;;2602449;54;20060;31
2021/11/03 08:25:10;;;;;;;31.50;26.70;;;15.80;99.90;;;;;;2602928;46;20030;31
2021/11/03 08:27:41;;;;;;;24.90;20.88;;;15.90;99.90;;;;;;2602485;54;20038;31
2021/11/03 08:30:12;;;;;;;14.88;9.80;;;16.00;99.90;;;;;;2602366;54;20030;31
2021/11/03 08:32:52;;;;;;;7.60;6.72;;;16.00;99.90;;;;;;2602309;46;20093;31
2021/11/03 08:35:25;;;;;;;8.35;7.20;;;15.90;99.90;;;;;;2602882;47;20749;31
2021/11/03 08:38:00;;;;;;;9.40;6.65;;;15.90;99.90;;;;;;2602978;46;20054;31
2021/11/03 08:40:31;;;;;;;9.38;5.95;;;16.10;99.90;;;;;;2602328;54;20019;31
2021/11/03 08:43:03;;;;;;;9.23;5.80;;;16.10;99.90;;;;;;2602923;47;20098;31
2021/11/03 08:45:38;;;;;;;;;;;16.10;99.90;;;;;;2603135;47;20877;31
2021/11/03 08:48:08;;;;;;;9.40;6.72;;;16.10;99.90;;;;;;2602774;47;19934;31
2021/11/03 08:50:40;;;;;;;7.80;6.65;;;16.20;99.90;;;;;;2602448;54;20810;31
2021/11/03 08:53:12;;;;;;;9.20;5.57;;;16.30;99.90;;;;;;2602524;54;20844;31
2021/11/03 08:55:47;;;;;;;6.97;5.05;;;16.40;99.90;;;;;;2602860;47;20878;31
2021/11/03 08:58:20;;;;;;;6.32;5.32;;;16.60;99.90;;;;;;2602417;54;20866;31
2021/11/03 09:00:52;;;;;;;9.15;6.85;;;16.70;99.90;;;;;;2602400;54;20057;31
2021/11/03 09:03:23;;;;;;;8.82;7.60;;;16.80;99.90;;;;;;2602399;54;20453;31
2021/11/03 09:05:54;;;;;;;9.02;7.95;;;16.70;99.90;;;;;;2602661;47;20049;31
2021/11/03 09:08:25;;;;;;;9.60;7.30;;;16.70;99.90;;;;;;2602342;54;20031;31
2021/11/03 09:11:00;;;;;;;10.20;7.03;;;16.60;99.90;;;;;;2602749;47;20033;31
2021/11/03 09:13:31;;;;;;;9.68;7.90;;;16.40;99.90;;;;;;2602144;47;20387;31
2021/11/03 09:16:02;;;;;;;15.35;9.45;;;16.30;99.90;;;;;;2602744;47;20465;31
2021/11/03 09:18:33;;;;;;;7.75;5.90;;;16.10;99.90;;;;;;2602143;54;20053;31
2021/11/03 09:21:07;;;;;;;9.90;5.45;;;16.10;99.90;;;;;;2602772;47;20419;31
2021/11/03 09:23:44;;;;;;;6.95;4.85;;;16.00;99.90;;;;;;2602217;54;20832;31
2021/11/03 09:26:16;;;;;;;9.13;6.55;;;15.70;99.90;;;;;;2602788;47;20101;31
2021/11/03 09:28:46;;;;;;;7.17;5.97;;;15.50;99.90;;;;;;2602067;54;20033;31
2021/11/03 09:31:17;;;;;;;7.20;5.18;;;15.30;99.90;;;;;;2602822;47;20770;31
2021/11/03 09:33:48;;;;;;;55.10;30.75;;;15.30;99.90;;;;;;2602275;54;20916;31
2021/11/03 09:36:20;;;;;;;22.95;15.90;;;15.30;99.90;;;;;;2602258;54;20926;31
2021/11/03 09:38:51;;;;;;;12.75;8.75;;;15.30;99.90;;;;;;2602680;47;20905;31
2021/11/03 09:41:32;;;;;;;12.75;8.15;;;15.30;99.90;;;;;;2602724;47;20085;31
2021/11/03 09:44:20;;;;;;;14.20;9.55;;;15.30;99.90;;;;;;2603388;47;21423;31
2021/11/03 09:46:56;;;;;;;7.82;5.10;;;15.40;99.90;;;;;;2602983;54;20716;31
2021/11/03 09:49:30;;;;;;;;;;;15.50;99.90;;;;;;2603636;46;21445;31
2021/11/03 09:52:15;;;;;;;6.67;5.00;;;15.50;99.90;;;;;;2618334;39;20302;31
2021/11/03 09:54:48;;;;;;;7.80;4.88;;;15.40;99.90;;;;;;2603168;54;20102;31
2021/11/03 09:57:27;;;;;;;7.72;6.28;;;15.20;99.90;;;;;;2602925;54;20483;31
2021/11/03 10:00:22;;;;;;;6.07;4.70;;;15.10;99.90;;;;;;2603539;46;20042;31
2021/11/03 10:03:25;;;;;;;8.23;4.60;;;15.00;99.90;;;;;;2603485;46;21457;31
2021/11/03 10:06:12;;;;;;;11.17;5.40;;;15.00;99.90;;;;;;2603174;54;22215;31
2021/11/03 10:08:44;;;;;;;8.88;5.65;;;14.90;99.90;;;;;;2602949;54;21462;31
2021/11/03 10:11:36;;;;;;;9.10;5.18;;;14.90;99.90;;;;;;2603441;46;20886;31
2021/11/03 10:14:07;;;;;;;14.40;5.50;;;14.90;99.90;;;;;;2618721;39;20326;31
2021/11/03 10:16:43;;;;;;;6.55;4.70;;;14.90;99.90;;;;;;2603513;46;20031;31
2021/11/03 10:19:14;;;;;;;7.35;4.18;;;14.90;99.90;;;;;;2603447;46;20747;31
2021/11/03 10:22:23;;;;;;;5.93;3.73;;;14.80;99.90;;;;;;2665211;31;20405;31
2021/11/03 10:25:19;;;;;;;12.50;4.80;;;14.80;99.90;;;;;;2603035;54;20030;31
2021/11/03 10:27:59;;;;;;;6.72;3.65;;;14.80;99.90;;;;;;2602809;54;20026;31
2021/11/03 10:30:36;;;;;;;6.72;4.50;;;14.80;99.90;;;;;;2602656;54;20038;31
2021/11/03 10:33:21;;;;;;;8.02;3.83;;;14.80;99.90;;;;;;2602849;54;20027;31
2021/11/03 10:35:58;;;;;;;7.13;3.60;;;14.80;99.90;;;;;;2603344;46;20902;31
2021/11/03 10:38:40;;;;;;;5.30;2.65;;;14.70;99.90;;;;;;2607516;39;21296;31
2021/11/03 10:41:21;;;;;;;4.60;2.80;;;14.60;99.90;;;;;;2603024;54;20027;31
2021/11/03 10:44:22;;;;;;;4.50;3.30;;;14.40;99.90;;;;;;2602726;54;20027;31
2021/11/03 10:46:55;;;;;;;7.40;3.33;;;14.40;99.90;;;;;;2603245;46;20496;31
2021/11/03 10:50:02;;;;;;;4.37;2.40;;;14.30;99.90;;;;;;2603280;46;20122;31
2021/11/03 10:52:41;;;;;;;3.55;2.63;;;14.20;99.90;;;;;;2602922;54;21345;31
2021/11/03 10:55:36;;;;;;;3.70;2.43;;;14.10;99.90;;;;;;2618698;39;21364;31
2021/11/03 10:58:13;;;;;;;3.10;2.45;;;14.00;99.90;;;;;;2602848;54;20042;31
2021/11/03 11:01:07;;;;;;;3.58;2.30;;;14.00;99.90;;;;;;2607377;39;21244;31
2021/11/03 11:03:51;;;;;;;5.25;3.00;;;14.00;99.90;;;;;;2602910;54;20809;31
2021/11/03 11:06:28;;;;;;;4.47;2.80;;;13.90;99.90;;;;;;2670604;39;21354;31
2021/11/03 11:09:08;;;;;;;3.55;2.05;;;13.90;99.90;;;;;;2602819;54;20906;31
2021/11/03 11:11:41;;;;;;;3.90;2.33;;;13.90;99.90;;;;;;2602670;54;20038;31
2021/11/03 11:14:22;;;;;;;3.45;2.55;;;13.90;99.90;;;;;;2603243;46;20875;31
2021/11/03 11:17:02;;;;;;;3.40;2.47;;;13.80;99.90;;;;;;2602773;54;20026;31
2021/11/03 11:19:43;;;;;;;7.13;2.80;;;13.70;99.90;;;;;;2603067;46;20923;31
2021/11/03 11:22:17;;;;;;;5.97;2.58;;;13.70;99.90;;;;;;2602546;54;20077;31
2021/11/03 11:25:05;;;;;;;3.40;2.30;;;13.60;99.90;;;;;;2602843;54;20752;31
2021/11/03 11:27:41;;;;;;;5.10;2.97;;;13.50;99.90;;;;;;2602374;54;20033;31
2021/11/03 11:30:21;;;;;;;4.37;2.37;;;13.40;99.90;;;;;;2602585;54;20043;31
2021/11/03 11:33:21;;;;;;;5.80;2.45;;;13.30;99.90;;;;;;2601888;54;20042;31
2021/11/03 11:35:58;;;;;;;3.20;2.10;;;13.30;99.90;;;;;;2603197;46;20897;31
2021/11/03 11:38:50;;;;;;;5.28;2.35;;;13.20;99.90;;;;;;2603061;46;20042;31
2021/11/03 11:41:27;;;;;;;8.65;4.30;;;13.10;99.90;;;;;;2602548;54;20042;31
2021/11/03 11:44:17;;;;;;;5.47;2.95;;;13.20;99.90;;;;;;2628408;39;20377;31
2021/11/03 11:46:48;;;;;;;5.30;3.47;;;13.20;99.90;;;;;;2611554;31;20414;31
2021/11/03 11:49:22;;;;;;;5.07;3.15;;;13.20;99.90;;;;;;2603012;46;20054;31
2021/11/03 11:51:56;;;;;;;5.47;3.60;;;13.10;99.90;;;;;;2603253;46;20918;31
2021/11/03 11:54:37;;;;;;;12.30;6.30;;;13.20;99.90;;;;;;2602465;54;20930;31
2021/11/03 11:57:13;;;;;;;10.68;6.25;;;13.10;99.90;;;;;;2603110;46;20100;31
2021/11/03 12:00:10;;;;;;;6.45;3.45;;;13.10;99.90;;;;;;2602814;54;20836;31
2021/11/03 12:02:57;;;;;;;6.40;3.70;;;13.10;99.90;;;;;;2602888;46;20043;31
2021/11/03 12:05:41;;;;;;;5.07;2.80;;;13.10;99.90;;;;;;2602259;54;21185;31
2021/11/03 12:08:19;;;;;;;4.90;2.00;;;13.10;99.90;;;;;;2602533;54;20277;31
2021/11/03 12:11:07;;;;;;;4.05;2.20;;;13.00;99.90;;;;;;2602967;46;20780;31
2021/11/03 12:13:44;;;;;;;4.70;2.50;;;13.10;99.90;;;;;;2602606;54;20042;31
2021/11/03 12:16:24;;;;;;;2.45;1.80;;;13.10;99.90;;;;;;2603067;46;20871;31
2021/11/03 12:18:57;;;;;;;5.35;2.00;;;13.00;99.90;;;;;;2602498;54;20808;31
2021/11/03 12:21:36;;;;;;;6.18;2.67;;;13.00;99.90;;;;;;2602930;46;20050;31
2021/11/03 12:24:07;;;;;;;7.63;2.47;;;13.00;99.90;;;;;;2602953;46;20893;31
2021/11/03 12:26:48;;;;;;;4.10;3.08;;;13.00;99.90;;;;;;2647272;39;20029;31
2021/11/03 12:29:19;;;;;;;4.97;3.93;;;13.00;99.90;;;;;;2602505;54;20691;31
2021/11/03 12:32:00;;;;;;;4.57;2.75;;;12.90;99.90;;;;;;2602405;54;20033;31
2021/11/03 12:34:36;;;;;;;3.15;2.15;;;12.90;99.90;;;;;;2602338;54;20042;31
2021/11/03 12:37:07;;;;;;;3.72;2.13;;;12.90;99.90;;;;;;2602959;46;20916;31
2021/11/03 12:39:45;;;;;;;8.90;2.95;;;12.90;99.90;;;;;;2603000;46;20791;31
2021/11/03 12:42:18;;;;;;;4.38;2.70;;;12.90;99.90;;;;;;2602477;54;20852;31
2021/11/03 12:44:51;;;;;;;4.97;2.63;;;12.90;99.90;;;;;;2602932;47;20069;31
2021/11/03 12:47:35;;;;;;;5.20;2.28;;;12.90;99.90;;;;;;2602735;47;20097;31
2021/11/03 12:50:27;;;;;;;3.78;2.67;;;12.90;99.90;;;;;;2602301;54;20898;31
2021/11/03 12:53:21;;;;;;;12.70;4.25;;;13.00;99.90;;;;;;2602453;54;20797;31
2021/11/03 12:56:00;;;;;;;6.35;2.72;;;13.00;99.90;;;;;;2602825;47;20877;31
2021/11/03 12:58:40;;;;;;;4.70;2.30;;;13.00;99.90;;;;;;2602744;47;20022;31
2021/11/03 13:01:33;;;;;;;4.33;2.07;;;13.00;99.90;;;;;;2602918;47;20046;31
2021/11/03 13:04:14;;;;;;;3.63;2.00;;;13.00;99.90;;;;;;2602348;54;20022;31
2021/11/03 13:07:06;;;;;;;4.30;2.03;;;12.90;99.90;;;;;;2607565;39;20382;31
2021/11/03 13:09:40;;;;;;;3.97;1.83;;;13.00;99.90;;;;;;2669371;39;20347;31
2021/11/03 13:12:23;;;;;;;4.70;2.10;;;12.90;99.90;;;;;;2602184;54;20157;31
2021/11/03 13:15:07;;;;;;;7.20;2.63;;;12.90;99.90;;;;;;2602701;47;20042;31
2021/11/03 13:17:49;;;;;;;4.78;2.80;;;12.90;99.90;;;;;;2602792;54;21548;31
2021/11/03 13:20:54;;;;;;;18.85;12.38;;;12.90;99.90;;;;;;2603219;54;20030;31
2021/11/03 13:23:24;;;;;;;28.10;19.60;;;12.80;99.90;;;;;;2603052;54;20781;31
2021/11/03 13:25:59;;;;;;;12.05;8.23;;;12.80;99.90;;;;;;2603536;46;20026;31
2021/11/03 13:28:33;;;;;;;9.25;5.53;;;12.80;99.90;;;;;;2603018;54;20023;31
2021/11/03 13:31:07;;;;;;;11.63;7.07;;;12.70;99.90;;;;;;2603490;46;20103;31
2021/11/03 13:33:40;;;;;;;4.30;2.80;;;12.80;99.90;;;;;;2603092;54;20041;31
2021/11/03 13:36:19;;;;;;;2.85;2.10;;;12.80;99.90;;;;;;2603393;46;20072;31
2021/11/03 13:38:57;;;;;;;3.83;2.13;;;12.80;99.90;;;;;;2603114;54;20045;31
2021/11/03 13:41:33;;;;;;;5.30;3.22;;;12.80;99.90;;;;;;2603051;54;20853;31
2021/11/03 13:44:23;;;;;;;;;;;12.90;99.90;;;;;;2603095;54;20046;31
2021/11/03 13:46:59;;;;;;;4.70;2.00;;;12.90;99.90;;;;;;2603104;54;20025;31
2021/11/03 13:49:38;;;;;;;4.68;1.90;;;12.90;99.90;;;;;;2603030;54;20030;31
2021/11/03 13:52:16;;;;;;;7.20;2.40;;;12.90;99.90;;;;;;2601515;54;20097;31
2021/11/03 13:54:51;;;;;;;3.78;2.50;;;13.00;99.90;;;;;;2602036;54;20022;31
2021/11/03 13:57:37;;;;;;;6.57;2.70;;;13.00;99.90;;;;;;2603021;54;19993;31
2021/11/03 14:00:29;;;;;;;6.43;3.17;;;13.00;99.90;;;;;;2602875;54;20022;31
2021/11/03 14:03:01;;;;;;;5.47;3.28;;;13.00;99.90;;;;;;2602876;54;20026;31
2021/11/03 14:05:40;;;;;;;6.30;3.38;;;13.00;99.90;;;;;;2602991;46;20102;31
2021/11/03 14:08:42;;;;;;;96.05;40.60;;;13.00;99.90;;;;;;2603618;46;20857;31
2021/11/03 14:11:26;;;;;;;9.47;5.50;;;12.90;99.90;;;;;;2602737;54;20101;31
2021/11/03 14:13:58;;;;;;;7.15;4.43;;;12.90;99.90;;;;;;2603363;46;20875;31
2021/11/03 14:16:42;;;;;;;9.75;4.25;;;12.90;99.90;;;;;;2603509;46;20901;31
2021/11/03 14:19:40;;;;;;;6.43;4.25;;;12.80;99.90;;;;;;2603530;46;20092;31
2021/11/03 14:22:35;;;;;;;5.13;3.83;;;12.80;99.90;;;;;;2602763;54;20043;31
2021/11/03 14:25:28;;;;;;;6.03;4.18;;;12.70;99.90;;;;;;2602856;54;20842;31
2021/11/03 14:28:02;;;;;;;7.35;4.15;;;12.70;99.90;;;;;;2603175;46;20045;31
2021/11/03 14:30:43;;;;;;;7.20;4.32;;;12.60;99.90;;;;;;2603162;46;20857;31
2021/11/03 14:33:22;;;;;;;11.35;8.18;;;12.60;99.90;;;;;;2602803;54;20862;31
2021/11/03 14:35:56;;;;;;;8.40;5.87;;;12.60;99.90;;;;;;2602610;46;20035;31
2021/11/03 14:38:33;;;;;;;9.52;6.32;;;12.50;99.90;;;;;;2601885;54;20720;31
2021/11/03 14:41:05;;;;;;;;;;;12.50;99.90;;;;;;2602710;46;20110;31
2021/11/03 14:43:38;;;;;;;12.77;6.35;;;12.40;99.90;;;;;;2603228;46;19987;31
2021/11/03 14:46:26;;;;;;;9.77;4.72;;;12.40;99.90;;;;;;2602659;54;20089;31
2021/11/03 14:48:59;;;;;;;10.57;7.13;;;12.30;99.90;;;;;;2603293;46;20077;31
2021/11/03 14:51:30;;;;;;;11.07;8.50;;;12.30;99.90;;;;;;2603067;46;20959;31
2021/11/03 14:54:01;;;;;;;16.85;10.90;;;12.20;99.90;;;;;;2602713;54;20043;31
2021/11/03 14:56:32;;;;;;;15.88;11.00;;;12.20;99.90;;;;;;2603206;46;20027;31
2021/11/03 14:59:03;;;;;;;15.47;11.50;;;12.20;99.90;;;;;;2603144;46;20053;31
2021/11/03 15:01:36;;;;;;;22.10;14.25;;;12.20;99.90;;;;;;2602518;54;20246;31
2021/11/03 15:04:30;;;;;;;19.30;13.88;;;12.20;99.90;;;;;;2603140;46;20037;31
2021/11/03 15:07:01;;;;;;;21.67;15.48;;;12.20;99.90;;;;;;2602663;54;20101;31
2021/11/03 15:09:53;;;;;;;12.53;8.27;;;12.20;99.90;;;;;;2603174;46;20057;31
2021/11/03 15:12:28;;;;;;;11.68;8.10;;;12.20;99.90;;;;;;2602691;54;20282;31
2021/11/03 15:14:58;;;;;;;8.80;6.60;;;12.20;99.90;;;;;;2602703;54;20033;31
2021/11/03 15:17:51;;;;;;;9.60;7.40;;;12.20;99.90;;;;;;2602659;54;20069;31
2021/11/03 15:20:31;;;;;;;9.75;6.93;;;12.20;99.90;;;;;;2601751;54;20103;31
2021/11/03 15:23:10;;;;;;;9.45;7.30;;;12.10;99.90;;;;;;2603139;46;20785;31
2021/11/03 15:25:41;;;;;;;9.43;6.30;;;12.10;99.90;;;;;;2603011;46;20096;31
2021/11/03 15:28:14;;;;;;;9.65;6.63;;;12.00;99.90;;;;;;2602630;54;20026;31
2021/11/03 15:30:46;;;;;;;9.30;6.70;;;12.00;99.90;;;;;;2602976;46;20757;31
2021/11/03 15:33:20;;;;;;;8.95;6.15;;;11.90;99.90;;;;;;2602602;54;20070;31
2021/11/03 15:35:56;;;;;;;9.83;6.07;;;11.80;99.90;;;;;;2603040;46;20027;31
2021/11/03 15:38:31;;;;;;;8.23;6.57;;;11.80;99.90;;;;;;2602370;54;20262;31
2021/11/03 15:41:05;;;;;;;11.07;7.05;;;11.80;99.90;;;;;;2602196;54;20912;31
2021/11/03 15:43:37;;;;;;;10.05;7.10;;;11.80;99.90;;;;;;2602953;46;20784;31
2021/11/03 15:46:19;;;;;;;9.48;7.28;;;11.70;99.90;;;;;;2602468;54;20042;31
2021/11/03 15:48:49;;;;;;;9.50;6.78;;;11.70;99.90;;;;;;2602967;46;20034;31
2021/11/03 15:51:20;;;;;;;12.57;7.15;;;11.60;99.90;;;;;;2602359;54;20029;31
2021/11/03 15:53:54;;;;;;;11.55;7.75;;;11.60;99.90;;;;;;2602995;46;20038;31
2021/11/03 15:56:25;;;;;;;11.00;7.75;;;11.60;99.90;;;;;;2602922;46;20026;31
2021/11/03 15:58:56;;;;;;;10.27;7.43;;;11.50;99.90;;;;;;2602393;54;20039;31
2021/11/03 16:01:27;;;;;;;10.73;7.80;;;11.40;99.90;;;;;;2690821;39;21195;31
2021/11/03 16:04:00;;;;;;;13.27;9.23;;;11.40;99.90;;;;;;2602771;46;20027;31
2021/11/03 16:06:33;;;;;;;13.15;7.47;;;11.40;99.90;;;;;;2602223;54;20042;31
2021/11/03 16:09:08;;;;;;;14.50;8.35;;;11.40;99.90;;;;;;2602759;46;20338;31
2021/11/03 16:11:45;;;;;;;12.70;9.35;;;11.30;99.90;;;;;;2602314;54;20093;31
2021/11/03 16:14:21;;;;;;;16.20;10.90;;;11.20;99.90;;;;;;2602264;54;20077;31
2021/11/03 16:16:53;;;;;;;19.10;11.03;;;11.20;99.90;;;;;;2602265;54;20078;31
2021/11/03 16:19:26;;;;;;;21.00;14.38;;;11.20;99.90;;;;;;2602797;46;20250;31
2021/11/03 16:21:58;;;;;;;22.27;14.83;;;11.20;99.90;;;;;;2602602;46;21256;31
2021/11/03 17:08:39;;;;;;;15.90;10.90;;;11.20;99.90;;;;;;2627248;53;20339;31
2021/11/03 17:11:33;;;;;;;18.50;13.27;;;11.90;99.90;;;;;;2588574;54;20242;31
2021/11/03 17:14:04;;;;;;;17.95;11.50;;;11.80;99.90;;;;;;2588273;46;20246;31
2021/11/03 17:16:36;;;;;;;15.50;11.60;;;11.80;99.90;;;;;;2588467;54;20784;31
2021/11/03 17:19:06;;;;;;;17.52;12.00;;;11.60;99.90;;;;;;2588636;54;20061;31
2021/11/03 17:21:36;;;;;;;19.55;12.88;;;11.60;99.90;;;;;;2588381;54;20909;31
2021/11/03 17:24:04;;;;;;;17.85;12.40;;;11.50;99.90;;;;;;2636271;38;21502;31
2021/11/03 17:26:44;;;;;;;19.40;12.20;;;11.40;99.90;;;;;;2588267;54;20042;31
2021/11/03 17:29:23;;;;;;;22.02;12.38;;;11.30;99.90;;;;;;2598128;38;21510;31
2021/11/03 17:31:55;;;;;;;17.30;9.80;;;11.30;99.90;;;;;;2588730;54;20840;31
2021/11/03 17:34:26;;;;;;;19.35;9.95;;;11.20;99.90;;;;;;2588567;54;20250;31
2021/11/03 17:36:55;;;;;;;13.35;9.10;;;11.20;99.90;;;;;;2587872;46;20881;31
2021/11/03 17:39:24;;;;;;;14.13;9.90;;;11.20;99.90;;;;;;2588546;39;22279;31
2021/11/03 17:41:53;;;;;;;15.77;10.93;;;11.20;99.90;;;;;;2584720;54;20097;31
2021/11/03 17:44:38;;;;;;;21.00;11.83;;;11.10;99.90;;;;;;2585290;46;20038;31
2021/11/03 17:47:10;;;;;;;16.85;11.07;;;11.10;99.90;;;;;;2584686;54;20942;31
2021/11/03 17:49:42;;;;;;;15.50;10.70;;;11.10;99.90;;;;;;2584764;54;20881;31
2021/11/03 17:52:13;;;;;;;21.77;13.07;;;11.10;99.90;;;;;;2585381;46;20900;31
2021/11/03 17:55:00;;;;;;;21.27;13.32;;;11.10;99.90;;;;;;2584682;54;20030;31
2021/11/03 17:57:41;;;;;;;41.47;28.23;;;11.20;99.90;;;;;;2675145;39;22226;31
2021/11/03 18:00:14;;;;;;;126.25;98.00;;;11.10;99.90;;;;;;2585423;46;20031;31
2021/11/03 18:02:48;;;;;;;76.18;66.72;;;11.10;99.90;;;;;;2584930;54;20042;31
2021/11/03 18:05:27;;;;;;;50.60;45.20;;;11.10;99.90;;;;;;2584837;54;20042;31
2021/11/03 18:07:58;;;;;;;27.67;24.27;;;11.10;99.90;;;;;;2594484;39;21485;31
2021/11/03 18:10:30;;;;;;;26.67;16.90;;;11.10;99.90;;;;;;2584861;54;20999;31
2021/11/03 18:13:01;;;;;;;24.70;15.90;;;11.10;99.90;;;;;;2585107;46;20037;31
2021/11/03 18:15:31;;;;;;;25.33;16.58;;;11.00;99.90;;;;;;2667047;31;21493;31
2021/11/03 18:17:59;;;;;;;22.30;13.60;;;11.00;99.90;;;;;;2584483;54;20046;31
2021/11/03 18:20:31;;;;;;;19.95;14.25;;;11.00;99.90;;;;;;2584602;46;20042;31
2021/11/03 18:23:03;;;;;;;23.30;15.70;;;11.00;99.90;;;;;;2585224;46;21009;31
2021/11/03 18:25:38;;;;;;;25.95;17.30;;;11.00;99.90;;;;;;2584690;54;20054;31
2021/11/03 18:28:07;;;;;;;25.00;16.70;;;11.00;99.90;;;;;;2594222;39;21439;31
2021/11/03 18:30:38;;;;;;;19.35;13.50;;;11.00;99.90;;;;;;2584746;54;21535;31
2021/11/03 18:33:14;;;;;;;21.98;16.08;;;11.00;99.90;;;;;;2584724;54;20948;31
2021/11/03 18:35:44;;;;;;;20.48;13.82;;;11.00;99.90;;;;;;2585090;46;20065;31
2021/11/03 18:38:20;;;;;;;22.05;14.32;;;11.00;99.90;;;;;;2629803;39;20978;31
2021/11/03 18:40:57;;;;;;;20.70;12.70;;;11.00;99.90;;;;;;2584405;46;20099;31
2021/11/03 18:43:29;;;;;;;22.95;13.10;;;11.00;99.90;;;;;;2583971;46;21405;31
2021/11/03 18:46:00;;;;;;;22.65;14.15;;;11.10;99.90;;;;;;2585035;46;20910;31
2021/11/03 18:48:29;;;;;;;22.53;14.10;;;11.00;99.90;;;;;;2584265;46;21019;31
2021/11/03 18:51:14;;;;;;;19.50;12.75;;;11.00;99.90;;;;;;2585090;47;20038;31
2021/11/03 18:53:45;;;;;;;20.98;13.50;;;11.00;99.90;;;;;;2585011;46;20077;31
2021/11/03 18:56:23;;;;;;;23.63;12.60;;;11.00;99.90;;;;;;2584707;54;21014;31
2021/11/03 18:58:54;;;;;;;19.40;12.93;;;11.00;99.90;;;;;;2585142;46;20712;31
2021/11/03 19:01:28;;;;;;;22.25;13.15;;;11.00;99.90;;;;;;2626024;39;21284;31
2021/11/03 19:04:04;;;;;;;19.97;12.87;;;11.00;99.90;;;;;;2584025;54;20970;31
2021/11/03 19:06:46;;;;;;;20.20;11.68;;;11.00;99.90;;;;;;2585049;46;20848;31
2021/11/03 19:09:23;;;;;;;16.25;11.05;;;10.90;99.90;;;;;;2585167;46;20098;31
2021/11/03 19:12:01;;;;;;;16.85;11.70;;;10.90;99.90;;;;;;2583777;54;20976;31
2021/11/03 19:14:40;;;;;;;19.15;12.20;;;10.90;99.90;;;;;;2584586;54;20083;31
2021/11/03 19:17:15;;;;;;;20.15;11.80;;;10.90;99.90;;;;;;2584969;46;20131;31
2021/11/03 19:19:48;;;;;;;19.42;12.95;;;10.90;99.90;;;;;;2584954;46;20033;31
2021/11/03 19:22:39;;;;;;;19.58;13.10;;;10.90;99.90;;;;;;2584437;54;20046;31
2021/11/03 19:25:19;;;;;;;23.83;13.80;;;10.80;99.90;;;;;;2600598;39;20361;31
2021/11/03 19:27:49;;;;;;;20.05;12.98;;;10.80;99.90;;;;;;2584798;46;20973;31
2021/11/03 19:30:23;;;;;;;18.80;11.60;;;10.70;99.90;;;;;;2584348;46;20118;31
2021/11/03 19:32:51;;;;;;;20.10;12.23;;;10.70;99.90;;;;;;2584308;46;20986;31
2021/11/03 19:35:23;;;;;;;20.57;11.97;;;10.70;99.90;;;;;;2584254;54;20050;31
2021/11/03 19:37:55;;;;;;;20.67;12.80;;;10.70;99.90;;;;;;2584286;54;20922;31
2021/11/03 19:40:31;;;;;;;27.65;15.05;;;10.70;99.90;;;;;;2584247;54;20054;31
2021/11/03 19:43:19;;;;;;;21.85;12.05;;;10.60;99.90;;;;;;2584279;46;20560;31
2021/11/03 19:46:08;;;;;;;18.15;12.45;;;10.60;99.90;;;;;;2583825;47;20069;31
2021/11/03 19:48:36;;;;;;;18.13;12.10;;;10.60;99.90;;;;;;2583801;54;20093;31
2021/11/03 19:51:34;;;;;;;19.50;10.50;;;10.60;99.90;;;;;;2584222;46;20122;31
2021/11/03 19:54:35;;;;;;;15.30;10.57;;;10.60;99.90;;;;;;2584423;54;20800;31
2021/11/03 19:57:18;;;;;;;18.95;12.50;;;10.70;99.90;;;;;;2584915;46;20930;31
2021/11/03 19:59:50;;;;;;;28.10;15.88;;;10.80;99.90;;;;;;2584771;46;20089;31
2021/11/03 20:02:22;;;;;;;45.55;27.10;;;10.70;99.90;;;;;;2584135;54;20109;31
2021/11/03 20:04:52;;;;;;;42.55;26.30;;;10.70;99.90;;;;;;2584290;54;20935;31
2021/11/03 20:07:28;;;;;;;42.85;28.63;;;10.70;99.90;;;;;;2584081;54;20141;31
2021/11/03 20:09:59;;;;;;;35.80;20.60;;;10.60;99.90;;;;;;2584872;46;21000;31
2021/11/03 20:12:28;;;;;;;39.20;21.58;;;10.60;99.90;;;;;;2583528;54;20304;31
2021/11/03 20:15:04;;;;;;;38.75;24.13;;;10.60;99.90;;;;;;2584198;46;19946;31
2021/11/03 20:17:34;;;;;;;;;;;10.60;99.90;;;;;;2584478;54;20961;31
2021/11/03 20:20:24;;;;;;;43.58;24.83;;;10.60;99.90;;;;;;2584499;47;20009;31
2021/11/03 20:22:54;;;;;;;38.10;18.10;;;10.50;99.90;;;;;;2583990;54;20816;31
2021/11/03 20:25:28;;;;;;;24.35;13.75;;;10.50;99.90;;;;;;2584605;47;20787;31
2021/11/03 20:28:01;;;;;;;24.20;14.40;;;10.50;99.90;;;;;;2583992;47;20857;31
2021/11/03 20:30:43;;;;;;;25.50;15.00;;;10.50;99.90;;;;;;2583627;54;20061;31
2021/11/03 20:33:18;;;;;;;25.35;13.95;;;10.50;99.90;;;;;;2619526;39;21346;31
2021/11/03 20:35:51;;;;;;;27.55;16.77;;;10.50;99.90;;;;;;2584752;47;20956;31
2021/11/03 20:38:30;;;;;;;25.10;16.27;;;10.50;99.90;;;;;;2584285;54;20050;31